EGPB/LSI METAR and TAF weather

Enter ICAO airport designator
Station Type Date Time Source
EGPB METAR 2018/12/12 05:50 UTC NOAA

EGPB 120550Z AUTO 17021KT 9999 OVC018/// 08/05 Q1020


Station Type Date Time Source
EGPB Decoded METAR 2018/12/12 05:50 UTC NOAA

Sumburgh Cape , United Kingdom (EGPB) 59-53N 001-18W
Dec 12, 2018 - 12:50 AM EST / 2018.12.12 0550 UTC
Wind: from the S (170 degrees) at 24 MPH (21 KT):0
Visibility: greater than 7 mile(s):0
Sky conditions: overcast
Temperature: 46 F (8 C)
Dew Point: 41 F (5 C)
Relative Humidity: 81%
Pressure (altimeter): 30.12 in. Hg (1020 hPa)
ob: EGPB 120550Z AUTO 17021KT 9999 OVC018/// 08/05 Q1020
cycle: 6

Station Type Date Time Source
EGPB TAF UTC NOAA

Error!


Example: see airport list